createdAt,value
2022-10-17T00:01:21.719Z,9.97
2022-10-17T00:03:50.833Z,9.99
2022-10-17T00:06:21.700Z,9.98
2022-10-17T00:08:56.280Z,9.94
2022-10-17T00:11:39.751Z,9.96
2022-10-17T00:14:10.793Z,9.97
2022-10-17T00:16:42.482Z,10.00
2022-10-17T00:19:10.647Z,10.03
2022-10-17T00:21:38.665Z,10.01
2022-10-17T00:24:10.259Z,10.01
2022-10-17T00:26:43.970Z,10.07
2022-10-17T00:29:14.956Z,10.06
2022-10-17T00:31:50.774Z,10.04
2022-10-17T00:34:23.696Z,10.01
2022-10-17T00:37:05.028Z,10.03
2022-10-17T00:39:34.256Z,10.03
2022-10-17T00:42:06.355Z,10.06
2022-10-17T00:45:02.764Z,10.04
2022-10-17T00:47:38.152Z,10.02
2022-10-17T00:50:09.398Z,9.99
2022-10-17T00:52:37.918Z,9.99
2022-10-17T00:55:12.756Z,9.99
2022-10-17T00:57:55.065Z,9.98
2022-10-17T01:00:23.558Z,10.04
2022-10-17T01:02:53.417Z,10.02
2022-10-17T01:05:23.234Z,10.09
2022-10-17T01:08:02.931Z,10.07
2022-10-17T01:10:37.792Z,9.96
2022-10-17T01:13:16.870Z,9.98
2022-10-17T01:16:08.807Z,9.99
2022-10-17T01:18:54.449Z,10.02
2022-10-17T01:21:46.280Z,10.01
2022-10-17T01:24:52.876Z,10.04
2022-10-17T01:28:02.688Z,10.00
2022-10-17T01:30:53.534Z,10.02
2022-10-17T01:33:37.680Z,10.03
2022-10-17T01:36:13.808Z,10.07
2022-10-17T01:38:54.380Z,10.08
2022-10-17T01:41:30.812Z,10.07
2022-10-17T01:44:11.281Z,10.09
2022-10-17T01:46:53.483Z,10.08
2022-10-17T01:49:28.185Z,10.15
2022-10-17T01:52:02.796Z,10.16
2022-10-17T01:54:45.773Z,10.18
2022-10-17T01:57:23.497Z,10.26
2022-10-17T01:59:58.720Z,10.28
2022-10-17T02:02:28.104Z,10.31
2022-10-17T02:04:58.677Z,10.31
2022-10-17T02:07:32.199Z,10.34
2022-10-17T02:10:07.447Z,10.31
2022-10-17T02:12:48.402Z,10.33
2022-10-17T02:15:55.692Z,10.36
2022-10-17T02:18:36.490Z,10.42
2022-10-17T02:21:17.104Z,10.43
2022-10-17T02:24:03.564Z,10.43
2022-10-17T02:26:39.640Z,10.45
2022-10-17T02:29:13.286Z,10.49
2022-10-17T02:31:48.415Z,10.52
2022-10-17T02:34:30.213Z,10.58
2022-10-17T02:37:04.766Z,10.54
2022-10-17T02:39:34.012Z,10.52
2022-10-17T02:42:11.682Z,10.48
2022-10-17T02:44:50.199Z,10.52
2022-10-17T02:47:27.578Z,10.58
2022-10-17T02:50:00.598Z,10.58
2022-10-17T02:52:41.488Z,10.56
2022-10-17T02:55:15.338Z,10.73
2022-10-17T02:57:46.162Z,10.79
2022-10-17T03:00:18.914Z,10.77
2022-10-17T03:02:49.013Z,10.82
2022-10-17T03:05:23.176Z,10.95
2022-10-17T03:07:55.328Z,10.89
2022-10-17T03:10:26.686Z,10.88
2022-10-17T03:19:26.508Z,10.83
2022-10-17T03:19:57.362Z,10.78
2022-10-17T03:22:36.270Z,10.79
2022-10-17T03:25:17.367Z,10.77
2022-10-17T03:30:41.964Z,10.73
2022-10-17T03:33:14.816Z,10.71
2022-10-17T03:38:22.108Z,10.66
2022-10-17T03:41:03.386Z,10.69
2022-10-17T03:43:38.340Z,10.68
2022-10-17T03:46:13.541Z,10.71
2022-10-17T03:48:44.393Z,10.69
2022-10-17T03:51:23.111Z,10.63
2022-10-17T03:53:51.244Z,10.57
2022-10-17T03:56:24.393Z,10.57
2022-10-17T03:59:01.062Z,10.57
2022-10-17T04:01:29.318Z,10.61
2022-10-17T04:04:14.853Z,10.61
2022-10-17T04:06:44.405Z,10.51
2022-10-17T04:09:14.951Z,10.51
2022-10-17T04:11:48.765Z,10.47
2022-10-17T04:14:19.336Z,10.51
2022-10-17T04:34:52.697Z,10.26
2022-10-17T04:37:23.433Z,10.23
2022-10-17T04:43:01.212Z,10.19
2022-10-17T04:45:38.836Z,10.23
2022-10-17T04:48:18.332Z,10.24
2022-10-17T04:51:13.205Z,10.24
2022-10-17T04:53:48.742Z,10.26
2022-10-17T05:00:28.333Z,10.19
2022-10-17T05:03:03.362Z,10.19
2022-10-17T05:05:52.481Z,10.17
2022-10-17T05:08:27.328Z,10.10
2022-10-17T05:11:08.604Z,10.12
2022-10-17T05:13:55.451Z,10.17
2022-10-17T05:16:29.532Z,10.17
2022-10-17T05:19:06.360Z,10.18
2022-10-17T05:21:39.981Z,10.18
2022-10-17T05:24:17.912Z,10.20
2022-10-17T05:30:20.481Z,10.15
2022-10-17T05:32:49.093Z,10.13
2022-10-17T05:58:07.886Z,10.18
2022-10-17T06:05:21.326Z,10.13
2022-10-17T06:08:02.726Z,10.12
2022-10-17T06:10:36.380Z,10.12
2022-10-17T06:13:08.874Z,10.11
2022-10-17T06:15:41.415Z,10.06
2022-10-17T06:18:34.059Z,10.10
2022-10-17T06:21:36.228Z,10.11
2022-10-17T06:24:23.697Z,10.09
2022-10-17T06:27:00.898Z,10.17
2022-10-17T06:29:35.095Z,10.21
2022-10-17T06:33:00.505Z,10.17
2022-10-17T06:35:34.140Z,10.16
2022-10-17T06:38:05.087Z,10.14
2022-10-17T06:40:37.387Z,10.14
2022-10-17T06:50:23.062Z,10.10
2022-10-17T06:53:02.388Z,10.21
2022-10-17T06:55:55.505Z,10.23
2022-10-17T06:58:27.669Z,10.21
2022-10-17T07:41:42.369Z,10.44
2022-10-17T07:44:14.102Z,10.50
2022-10-17T07:46:49.486Z,10.57
2022-10-17T07:49:21.402Z,10.63
2022-10-17T07:52:09.594Z,10.70
2022-10-17T07:54:47.721Z,10.72
2022-10-17T07:57:34.160Z,10.79
2022-10-17T08:10:52.722Z,10.98
2022-10-17T08:13:26.482Z,11.01
2022-10-17T08:53:16.035Z,11.62
2022-10-17T08:55:59.453Z,11.68
2022-10-17T09:02:04.355Z,11.77
2022-10-17T09:04:53.845Z,11.86
2022-10-17T09:11:18.772Z,11.98
2022-10-17T09:14:34.756Z,12.04
2022-10-17T09:17:44.849Z,12.07
2022-10-17T09:21:11.667Z,12.08
2022-10-17T09:24:09.853Z,12.09
2022-10-17T09:26:48.435Z,12.09
2022-10-17T09:29:25.730Z,12.14
2022-10-17T09:32:02.008Z,12.16
2022-10-17T09:34:37.946Z,12.20
2022-10-17T09:37:15.890Z,12.25
2022-10-17T09:39:47.670Z,12.27
2022-10-17T09:45:19.321Z,12.36
2022-10-17T09:48:01.655Z,12.42
2022-10-17T09:50:35.657Z,12.46
2022-10-17T09:53:16.980Z,12.50
2022-10-17T09:55:53.080Z,12.52
2022-10-17T09:58:27.775Z,12.52
2022-10-17T10:01:21.062Z,12.60
2022-10-17T10:04:11.104Z,12.77
2022-10-17T10:06:39.902Z,12.80
2022-10-17T10:09:23.188Z,12.88
2022-10-17T10:11:55.599Z,12.96
2022-10-17T10:14:25.368Z,13.04
2022-10-17T10:16:55.024Z,13.10
2022-10-17T10:19:30.497Z,13.13
2022-10-17T10:21:59.872Z,13.14
2022-10-17T10:24:31.797Z,13.16
2022-10-17T10:27:03.024Z,13.22
2022-10-17T10:29:34.337Z,13.21
2022-10-17T10:32:11.384Z,13.16
2022-10-17T10:34:47.797Z,13.15
2022-10-17T10:37:22.406Z,13.15
2022-10-17T10:39:54.593Z,13.18
2022-10-17T10:42:26.643Z,13.23
2022-10-17T10:44:59.048Z,13.29
2022-10-17T10:47:29.418Z,13.35
2022-10-17T10:50:17.352Z,13.41
2022-10-17T10:52:52.427Z,13.43
2022-10-17T10:55:30.886Z,13.50
2022-10-17T10:58:04.853Z,13.51
2022-10-17T11:00:36.163Z,13.54
2022-10-17T11:03:12.949Z,13.55
2022-10-17T11:05:45.554Z,13.59
2022-10-17T11:08:21.407Z,13.63
2022-10-17T11:11:05.826Z,13.72
2022-10-17T11:13:39.776Z,13.81
2022-10-17T11:16:19.881Z,13.88
2022-10-17T11:18:52.456Z,13.93
2022-10-17T11:21:34.426Z,14.03
2022-10-17T11:24:12.009Z,14.11
2022-10-17T11:26:50.595Z,14.23
2022-10-17T11:29:23.981Z,14.36
2022-10-17T11:31:54.962Z,14.45
2022-10-17T11:34:27.484Z,14.54
2022-10-17T11:37:01.059Z,14.61
2022-10-17T11:39:33.121Z,14.67
2022-10-17T11:42:07.972Z,14.75
2022-10-17T11:44:38.381Z,14.85
2022-10-17T11:47:24.467Z,14.94
2022-10-17T11:49:58.713Z,14.99
2022-10-17T11:52:56.442Z,15.03
2022-10-17T11:55:26.143Z,15.07
2022-10-17T12:10:16.812Z,15.45
2022-10-17T12:12:44.848Z,15.54
2022-10-17T12:15:30.742Z,15.67
2022-10-17T12:18:03.166Z,15.79
2022-10-17T12:20:34.187Z,15.91
2022-10-17T12:23:07.479Z,15.94
2022-10-17T12:28:19.492Z,15.95
2022-10-17T12:30:57.401Z,16.12
2022-10-17T12:33:32.122Z,16.08
2022-10-17T12:36:44.959Z,16.08
2022-10-17T12:39:45.571Z,16.22
2022-10-17T12:42:54.961Z,16.34
2022-10-17T12:45:49.623Z,16.37
2022-10-17T12:48:54.905Z,16.46
2022-10-17T12:51:40.719Z,16.49
2022-10-17T12:54:15.220Z,16.56
2022-10-17T12:56:45.715Z,16.60
2022-10-17T12:59:18.760Z,16.63
2022-10-17T13:01:49.592Z,16.74
2022-10-17T13:04:19.688Z,16.70
2022-10-17T13:06:50.618Z,16.63
2022-10-17T13:09:27.184Z,16.74
2022-10-17T13:11:58.311Z,16.81
2022-10-17T13:14:28.745Z,16.80
2022-10-17T13:16:59.072Z,16.85
2022-10-17T13:19:30.669Z,16.90
2022-10-17T13:22:06.476Z,16.96
2022-10-17T13:24:37.502Z,17.02
2022-10-17T13:27:07.369Z,17.10
2022-10-17T13:29:38.462Z,17.13
2022-10-17T13:32:10.145Z,17.11
2022-10-17T13:34:38.513Z,17.10
2022-10-17T13:37:08.608Z,17.20
2022-10-17T13:39:58.335Z,17.25
2022-10-17T13:42:32.226Z,17.20
2022-10-17T13:45:01.911Z,17.25
2022-10-17T13:47:32.124Z,17.23
2022-10-17T13:50:00.387Z,17.19
2022-10-17T13:52:31.083Z,17.25
2022-10-17T13:55:11.743Z,17.27
2022-10-17T13:57:41.440Z,17.32
2022-10-17T14:00:21.475Z,17.37
2022-10-17T14:02:49.591Z,17.39
2022-10-17T14:05:20.177Z,17.41
2022-10-17T14:10:43.599Z,17.53
2022-10-17T14:13:20.488Z,17.60
2022-10-17T14:15:50.889Z,17.58
2022-10-17T14:18:21.787Z,17.54
2022-10-17T14:23:45.055Z,17.49
2022-10-17T14:26:16.475Z,17.62
2022-10-17T14:28:48.791Z,17.65
2022-10-17T14:31:30.334Z,17.74
2022-10-17T14:34:02.941Z,17.88
2022-10-17T14:36:43.676Z,18.06
2022-10-17T14:39:22.116Z,18.19
2022-10-17T14:41:51.661Z,18.40
2022-10-17T14:44:27.642Z,18.52
2022-10-17T14:47:30.684Z,18.61
2022-10-17T14:50:23.015Z,18.69
2022-10-17T14:53:07.249Z,18.76
2022-10-17T14:55:37.156Z,18.88
2022-10-17T14:58:20.871Z,19.09
2022-10-17T15:00:56.507Z,19.23
2022-10-17T15:03:37.211Z,19.25
2022-10-17T15:06:22.158Z,19.29
2022-10-17T15:08:50.786Z,19.14
2022-10-17T15:11:20.546Z,18.92
2022-10-17T15:13:53.811Z,18.77
2022-10-17T15:19:09.274Z,18.57
2022-10-17T15:25:26.788Z,18.38
2022-10-17T15:27:58.980Z,18.29
2022-10-17T15:30:40.413Z,18.24
2022-10-17T15:33:12.652Z,18.19
2022-10-17T15:35:44.917Z,18.09
2022-10-17T15:38:45.251Z,18.00
2022-10-17T15:41:20.003Z,17.84
2022-10-17T15:43:49.443Z,17.75
2022-10-17T15:46:21.622Z,17.70
2022-10-17T15:48:50.981Z,17.68
2022-10-17T15:51:27.192Z,17.58
2022-10-17T15:53:56.201Z,17.46
2022-10-17T15:56:36.124Z,17.36
2022-10-17T15:59:07.387Z,17.27
2022-10-17T16:01:36.307Z,17.21
2022-10-17T16:04:05.858Z,17.09
2022-10-17T16:06:36.123Z,17.03
2022-10-17T16:09:04.380Z,16.95
2022-10-17T16:11:35.534Z,16.87
2022-10-17T16:14:11.272Z,16.76
2022-10-17T16:16:40.061Z,16.64
2022-10-17T16:19:08.814Z,16.61
2022-10-17T16:21:41.594Z,16.48
2022-10-17T16:24:14.615Z,16.42
2022-10-17T16:26:42.852Z,16.32
2022-10-17T16:29:11.117Z,16.31
2022-10-17T16:31:43.450Z,16.26
2022-10-17T16:34:13.664Z,16.21
2022-10-17T16:36:43.484Z,16.13
2022-10-17T16:39:11.661Z,16.11
2022-10-17T16:41:40.647Z,16.01
2022-10-17T16:44:13.609Z,15.95
2022-10-17T16:46:42.203Z,15.86
2022-10-17T16:49:12.441Z,15.76
2022-10-17T16:51:40.413Z,15.64
2022-10-17T16:54:10.708Z,15.61
2022-10-17T16:56:38.832Z,15.56
2022-10-17T16:59:07.398Z,15.47
2022-10-17T17:01:35.761Z,15.38
2022-10-17T17:04:04.721Z,15.24
2022-10-17T17:06:33.335Z,15.12
2022-10-17T17:09:01.770Z,15.01
2022-10-17T17:11:32.486Z,14.91
2022-10-17T17:14:02.662Z,14.80
2022-10-17T17:16:31.368Z,14.69
2022-10-17T17:19:01.103Z,14.61
2022-10-17T17:21:29.371Z,14.52
2022-10-17T17:24:00.538Z,14.43
2022-10-17T17:26:32.792Z,14.42
2022-10-17T17:29:01.915Z,14.36
2022-10-17T17:31:32.445Z,14.27
2022-10-17T17:34:19.988Z,14.13
2022-10-17T17:37:03.273Z,14.03
2022-10-17T17:40:33.774Z,13.92
2022-10-17T17:43:42.223Z,13.79
2022-10-17T17:46:23.139Z,13.75
2022-10-17T17:49:38.455Z,13.64
2022-10-17T18:05:36.191Z,13.21
2022-10-17T18:12:11.713Z,13.04
2022-10-17T18:14:59.813Z,12.95
2022-10-17T18:17:47.551Z,12.89
2022-10-17T18:27:29.472Z,12.65
2022-10-17T18:30:03.009Z,12.63
2022-10-17T20:55:45.959Z,9.96
2022-10-17T20:58:18.593Z,9.94
2022-10-17T21:00:51.755Z,9.90
